sensor_id;sensor_type;location;lat;lon;timestamp;P1;durP1;ratioP1;P2;durP2;ratioP2
2173;SDS011;1093;51.424;11.764;2024-03-02T00:00:39;48.33;;;26.20;;
2173;SDS011;1093;51.424;11.764;2024-03-02T00:03:08;44.40;;;25.67;;
2173;SDS011;1093;51.424;11.764;2024-03-02T00:05:35;44.10;;;25.43;;
2173;SDS011;1093;51.424;11.764;2024-03-02T00:08:02;42.00;;;24.13;;
2173;SDS011;1093;51.424;11.764;2024-03-02T00:10:35;43.57;;;25.40;;
2173;SDS011;1093;51.424;11.764;2024-03-02T00:13:04;50.03;;;26.57;;
2173;SDS011;1093;51.424;11.764;2024-03-02T00:15:40;48.17;;;26.10;;
2173;SDS011;1093;51.424;11.764;2024-03-02T00:18:10;38.47;;;23.40;;
2173;SDS011;1093;51.424;11.764;2024-03-02T00:20:38;38.47;;;23.77;;
2173;SDS011;1093;51.424;11.764;2024-03-02T00:23:06;39.00;;;22.17;;
2173;SDS011;1093;51.424;11.764;2024-03-02T00:25:40;36.57;;;22.33;;
2173;SDS011;1093;51.424;11.764;2024-03-02T00:28:19;35.57;;;22.13;;
2173;SDS011;1093;51.424;11.764;2024-03-02T00:33:34;34.03;;;20.43;;
2173;SDS011;1093;51.424;11.764;2024-03-02T00:36:02;31.83;;;18.57;;
2173;SDS011;1093;51.424;11.764;2024-03-02T00:38:30;34.47;;;18.70;;
2173;SDS011;1093;51.424;11.764;2024-03-02T00:40:58;35.83;;;19.97;;
2173;SDS011;1093;51.424;11.764;2024-03-02T00:46:12;26.50;;;18.13;;
2173;SDS011;1093;51.424;11.764;2024-03-02T00:48:41;35.20;;;17.87;;
2173;SDS011;1093;51.424;11.764;2024-03-02T00:51:17;28.67;;;16.67;;
2173;SDS011;1093;51.424;11.764;2024-03-02T00:53:44;32.53;;;19.43;;
2173;SDS011;1093;51.424;11.764;2024-03-02T00:56:11;31.17;;;19.03;;
2173;SDS011;1093;51.424;11.764;2024-03-02T00:58:38;28.80;;;17.80;;
2173;SDS011;1093;51.424;11.764;2024-03-02T01:01:05;29.20;;;18.47;;
2173;SDS011;1093;51.424;11.764;2024-03-02T01:03:34;39.33;;;21.13;;
2173;SDS011;1093;51.424;11.764;2024-03-02T01:06:02;39.57;;;20.00;;
2173;SDS011;1093;51.424;11.764;2024-03-02T01:08:30;31.33;;;19.20;;
2173;SDS011;1093;51.424;11.764;2024-03-02T01:10:56;33.90;;;19.70;;
2173;SDS011;1093;51.424;11.764;2024-03-02T01:13:23;36.83;;;18.83;;
2173;SDS011;1093;51.424;11.764;2024-03-02T01:15:50;36.43;;;18.53;;
2173;SDS011;1093;51.424;11.764;2024-03-02T01:18:17;43.67;;;21.77;;
2173;SDS011;1093;51.424;11.764;2024-03-02T01:20:45;32.13;;;18.87;;
2173;SDS011;1093;51.424;11.764;2024-03-02T01:23:12;35.63;;;18.50;;
2173;SDS011;1093;51.424;11.764;2024-03-02T01:25:38;32.83;;;19.90;;
2173;SDS011;1093;51.424;11.764;2024-03-02T01:28:05;33.73;;;21.53;;
2173;SDS011;1093;51.424;11.764;2024-03-02T01:30:33;42.67;;;20.27;;
2173;SDS011;1093;51.424;11.764;2024-03-02T01:33:00;36.37;;;20.13;;
2173;SDS011;1093;51.424;11.764;2024-03-02T01:35:27;35.10;;;20.00;;
2173;SDS011;1093;51.424;11.764;2024-03-02T01:37:55;35.83;;;19.07;;
2173;SDS011;1093;51.424;11.764;2024-03-02T01:40:22;31.60;;;18.70;;
2173;SDS011;1093;51.424;11.764;2024-03-02T01:42:51;33.23;;;18.90;;
2173;SDS011;1093;51.424;11.764;2024-03-02T01:45:19;28.70;;;18.20;;
2173;SDS011;1093;51.424;11.764;2024-03-02T01:47:46;30.90;;;17.23;;
2173;SDS011;1093;51.424;11.764;2024-03-02T01:50:13;30.17;;;17.80;;
2173;SDS011;1093;51.424;11.764;2024-03-02T01:52:41;30.60;;;17.37;;
2173;SDS011;1093;51.424;11.764;2024-03-02T01:55:10;30.00;;;17.50;;
2173;SDS011;1093;51.424;11.764;2024-03-02T01:57:37;33.83;;;18.83;;
2173;SDS011;1093;51.424;11.764;2024-03-02T02:00:05;35.90;;;20.47;;
2173;SDS011;1093;51.424;11.764;2024-03-02T02:02:34;33.60;;;19.40;;
2173;SDS011;1093;51.424;11.764;2024-03-02T02:05:01;40.97;;;20.43;;
2173;SDS011;1093;51.424;11.764;2024-03-02T02:07:28;33.33;;;19.00;;
2173;SDS011;1093;51.424;11.764;2024-03-02T02:09:55;30.20;;;17.80;;
2173;SDS011;1093;51.424;11.764;2024-03-02T02:12:24;34.17;;;19.20;;
2173;SDS011;1093;51.424;11.764;2024-03-02T02:14:51;31.90;;;20.53;;
2173;SDS011;1093;51.424;11.764;2024-03-02T02:17:17;33.17;;;19.47;;
2173;SDS011;1093;51.424;11.764;2024-03-02T02:19:44;31.37;;;17.47;;
2173;SDS011;1093;51.424;11.764;2024-03-02T02:22:13;29.93;;;17.93;;
2173;SDS011;1093;51.424;11.764;2024-03-02T02:24:40;35.33;;;18.60;;
2173;SDS011;1093;51.424;11.764;2024-03-02T02:27:08;30.50;;;17.93;;
2173;SDS011;1093;51.424;11.764;2024-03-02T02:29:35;30.30;;;17.73;;
2173;SDS011;1093;51.424;11.764;2024-03-02T02:32:03;30.90;;;19.80;;
2173;SDS011;1093;51.424;11.764;2024-03-02T02:34:30;28.90;;;18.77;;
2173;SDS011;1093;51.424;11.764;2024-03-02T02:36:58;29.53;;;18.10;;
2173;SDS011;1093;51.424;11.764;2024-03-02T02:39:27;36.00;;;17.87;;
2173;SDS011;1093;51.424;11.764;2024-03-02T02:41:54;33.07;;;18.17;;
2173;SDS011;1093;51.424;11.764;2024-03-02T02:44:20;33.23;;;18.80;;
2173;SDS011;1093;51.424;11.764;2024-03-02T02:46:48;40.97;;;21.60;;
2173;SDS011;1093;51.424;11.764;2024-03-02T02:49:14;37.00;;;18.77;;
2173;SDS011;1093;51.424;11.764;2024-03-02T02:51:42;42.07;;;21.00;;
2173;SDS011;1093;51.424;11.764;2024-03-02T02:54:09;35.23;;;18.90;;
2173;SDS011;1093;51.424;11.764;2024-03-02T02:56:37;37.57;;;20.20;;
2173;SDS011;1093;51.424;11.764;2024-03-02T02:59:04;36.17;;;19.50;;
2173;SDS011;1093;51.424;11.764;2024-03-02T03:01:30;33.03;;;19.53;;
2173;SDS011;1093;51.424;11.764;2024-03-02T03:03:57;35.63;;;19.30;;
2173;SDS011;1093;51.424;11.764;2024-03-02T03:06:24;35.47;;;17.83;;
2173;SDS011;1093;51.424;11.764;2024-03-02T03:08:51;34.53;;;18.93;;
2173;SDS011;1093;51.424;11.764;2024-03-02T03:11:17;33.20;;;18.27;;
2173;SDS011;1093;51.424;11.764;2024-03-02T03:13:46;32.40;;;18.90;;
2173;SDS011;1093;51.424;11.764;2024-03-02T03:16:13;32.73;;;18.33;;
2173;SDS011;1093;51.424;11.764;2024-03-02T03:18:40;34.60;;;19.03;;
2173;SDS011;1093;51.424;11.764;2024-03-02T03:21:06;37.60;;;21.50;;
2173;SDS011;1093;51.424;11.764;2024-03-02T03:23:33;41.47;;;20.50;;
2173;SDS011;1093;51.424;11.764;2024-03-02T03:26:00;40.60;;;20.87;;
2173;SDS011;1093;51.424;11.764;2024-03-02T03:28:27;38.03;;;23.00;;
2173;SDS011;1093;51.424;11.764;2024-03-02T03:30:55;41.63;;;20.23;;
2173;SDS011;1093;51.424;11.764;2024-03-02T03:33:22;33.80;;;20.10;;
2173;SDS011;1093;51.424;11.764;2024-03-02T03:35:49;46.27;;;22.40;;
2173;SDS011;1093;51.424;11.764;2024-03-02T03:38:15;34.70;;;20.80;;
2173;SDS011;1093;51.424;11.764;2024-03-02T03:40:42;31.27;;;17.50;;
2173;SDS011;1093;51.424;11.764;2024-03-02T03:43:09;35.80;;;20.77;;
2173;SDS011;1093;51.424;11.764;2024-03-02T03:45:36;35.07;;;22.63;;
2173;SDS011;1093;51.424;11.764;2024-03-02T03:48:05;43.47;;;22.77;;
2173;SDS011;1093;51.424;11.764;2024-03-02T03:50:32;41.43;;;22.63;;
2173;SDS011;1093;51.424;11.764;2024-03-02T03:52:59;43.23;;;24.33;;
2173;SDS011;1093;51.424;11.764;2024-03-02T03:55:26;48.10;;;24.27;;
2173;SDS011;1093;51.424;11.764;2024-03-02T03:57:52;40.83;;;21.10;;
2173;SDS011;1093;51.424;11.764;2024-03-02T04:00:19;43.80;;;22.47;;
2173;SDS011;1093;51.424;11.764;2024-03-02T04:02:47;45.43;;;23.90;;
2173;SDS011;1093;51.424;11.764;2024-03-02T04:05:15;48.07;;;23.90;;
2173;SDS011;1093;51.424;11.764;2024-03-02T04:07:42;46.03;;;25.53;;
2173;SDS011;1093;51.424;11.764;2024-03-02T04:10:09;56.83;;;28.87;;
2173;SDS011;1093;51.424;11.764;2024-03-02T04:12:37;44.60;;;25.13;;
2173;SDS011;1093;51.424;11.764;2024-03-02T04:15:05;47.80;;;27.83;;
2173;SDS011;1093;51.424;11.764;2024-03-02T04:17:32;51.97;;;27.40;;
2173;SDS011;1093;51.424;11.764;2024-03-02T04:20:00;52.67;;;26.80;;
2173;SDS011;1093;51.424;11.764;2024-03-02T04:22:32;44.57;;;26.50;;
2173;SDS011;1093;51.424;11.764;2024-03-02T04:25:02;54.97;;;27.00;;
2173;SDS011;1093;51.424;11.764;2024-03-02T04:27:32;49.50;;;26.97;;
2173;SDS011;1093;51.424;11.764;2024-03-02T04:29:59;61.17;;;29.80;;
2173;SDS011;1093;51.424;11.764;2024-03-02T04:32:26;53.90;;;26.60;;
2173;SDS011;1093;51.424;11.764;2024-03-02T04:34:53;57.57;;;27.97;;
2173;SDS011;1093;51.424;11.764;2024-03-02T04:37:20;54.43;;;28.77;;
2173;SDS011;1093;51.424;11.764;2024-03-02T04:39:48;50.77;;;25.07;;
2173;SDS011;1093;51.424;11.764;2024-03-02T04:42:15;51.13;;;26.87;;
2173;SDS011;1093;51.424;11.764;2024-03-02T04:44:42;47.27;;;24.67;;
2173;SDS011;1093;51.424;11.764;2024-03-02T04:47:09;46.90;;;24.40;;
2173;SDS011;1093;51.424;11.764;2024-03-02T04:49:35;44.40;;;24.17;;
2173;SDS011;1093;51.424;11.764;2024-03-02T04:52:02;46.10;;;26.70;;
2173;SDS011;1093;51.424;11.764;2024-03-02T04:54:30;46.50;;;25.00;;
2173;SDS011;1093;51.424;11.764;2024-03-02T04:56:58;51.97;;;29.63;;
2173;SDS011;1093;51.424;11.764;2024-03-02T04:59:25;51.97;;;26.07;;
2173;SDS011;1093;51.424;11.764;2024-03-02T05:01:51;50.83;;;25.53;;
2173;SDS011;1093;51.424;11.764;2024-03-02T05:04:18;46.90;;;26.43;;
2173;SDS011;1093;51.424;11.764;2024-03-02T05:06:45;60.00;;;26.70;;
2173;SDS011;1093;51.424;11.764;2024-03-02T05:09:17;51.03;;;27.93;;
2173;SDS011;1093;51.424;11.764;2024-03-02T05:11:44;56.83;;;27.90;;
2173;SDS011;1093;51.424;11.764;2024-03-02T05:14:23;51.83;;;24.47;;
2173;SDS011;1093;51.424;11.764;2024-03-02T05:16:49;50.83;;;26.63;;
2173;SDS011;1093;51.424;11.764;2024-03-02T05:19:16;53.73;;;28.87;;
2173;SDS011;1093;51.424;11.764;2024-03-02T05:21:43;52.10;;;27.47;;
2173;SDS011;1093;51.424;11.764;2024-03-02T05:24:10;53.70;;;28.07;;
2173;SDS011;1093;51.424;11.764;2024-03-02T05:26:37;65.67;;;29.77;;
2173;SDS011;1093;51.424;11.764;2024-03-02T05:29:04;46.87;;;26.27;;
2173;SDS011;1093;51.424;11.764;2024-03-02T05:31:32;56.60;;;27.77;;
2173;SDS011;1093;51.424;11.764;2024-03-02T05:33:59;62.10;;;29.80;;
2173;SDS011;1093;51.424;11.764;2024-03-02T05:36:26;61.50;;;32.70;;
2173;SDS011;1093;51.424;11.764;2024-03-02T05:38:53;67.00;;;32.07;;
2173;SDS011;1093;51.424;11.764;2024-03-02T05:41:20;70.60;;;32.60;;
2173;SDS011;1093;51.424;11.764;2024-03-02T05:43:47;78.90;;;31.67;;
2173;SDS011;1093;51.424;11.764;2024-03-02T05:46:14;62.50;;;32.20;;
2173;SDS011;1093;51.424;11.764;2024-03-02T05:48:42;63.87;;;31.77;;
2173;SDS011;1093;51.424;11.764;2024-03-02T05:51:09;66.07;;;31.47;;
2173;SDS011;1093;51.424;11.764;2024-03-02T05:53:36;73.37;;;33.30;;
2173;SDS011;1093;51.424;11.764;2024-03-02T05:56:04;67.50;;;33.70;;
2173;SDS011;1093;51.424;11.764;2024-03-02T05:58:31;70.17;;;34.30;;
2173;SDS011;1093;51.424;11.764;2024-03-02T06:01:11;69.87;;;33.80;;
2173;SDS011;1093;51.424;11.764;2024-03-02T06:03:38;80.23;;;37.93;;
2173;SDS011;1093;51.424;11.764;2024-03-02T06:06:06;79.13;;;41.13;;
2173;SDS011;1093;51.424;11.764;2024-03-02T06:08:33;86.63;;;40.93;;
2173;SDS011;1093;51.424;11.764;2024-03-02T06:11:01;80.73;;;38.30;;
2173;SDS011;1093;51.424;11.764;2024-03-02T06:13:28;75.73;;;36.77;;
2173;SDS011;1093;51.424;11.764;2024-03-02T06:15:55;73.30;;;34.87;;
2173;SDS011;1093;51.424;11.764;2024-03-02T06:18:21;74.10;;;35.80;;
2173;SDS011;1093;51.424;11.764;2024-03-02T06:20:48;80.13;;;37.30;;
2173;SDS011;1093;51.424;11.764;2024-03-02T06:23:16;73.70;;;35.20;;
2173;SDS011;1093;51.424;11.764;2024-03-02T06:25:43;61.67;;;34.07;;
2173;SDS011;1093;51.424;11.764;2024-03-02T06:28:10;71.23;;;34.30;;
2173;SDS011;1093;51.424;11.764;2024-03-02T06:30:40;79.20;;;36.80;;
2173;SDS011;1093;51.424;11.764;2024-03-02T06:33:07;72.07;;;34.47;;
2173;SDS011;1093;51.424;11.764;2024-03-02T06:35:34;71.67;;;35.30;;
2173;SDS011;1093;51.424;11.764;2024-03-02T06:38:01;70.73;;;34.27;;
2173;SDS011;1093;51.424;11.764;2024-03-02T06:40:29;65.70;;;35.50;;
2173;SDS011;1093;51.424;11.764;2024-03-02T06:42:56;72.83;;;33.13;;
2173;SDS011;1093;51.424;11.764;2024-03-02T06:45:23;68.43;;;32.63;;
2173;SDS011;1093;51.424;11.764;2024-03-02T06:47:50;83.20;;;34.93;;
2173;SDS011;1093;51.424;11.764;2024-03-02T06:50:17;72.80;;;34.80;;
2173;SDS011;1093;51.424;11.764;2024-03-02T06:52:44;72.10;;;35.90;;
2173;SDS011;1093;51.424;11.764;2024-03-02T06:55:11;75.80;;;35.87;;
2173;SDS011;1093;51.424;11.764;2024-03-02T06:57:39;77.33;;;36.60;;
2173;SDS011;1093;51.424;11.764;2024-03-02T07:00:06;70.00;;;37.60;;
2173;SDS011;1093;51.424;11.764;2024-03-02T07:02:34;71.03;;;34.07;;
2173;SDS011;1093;51.424;11.764;2024-03-02T07:05:01;72.17;;;39.63;;
2173;SDS011;1093;51.424;11.764;2024-03-02T07:07:28;81.00;;;35.57;;
2173;SDS011;1093;51.424;11.764;2024-03-02T07:09:54;84.93;;;36.63;;
2173;SDS011;1093;51.424;11.764;2024-03-02T07:12:21;76.27;;;35.60;;
2173;SDS011;1093;51.424;11.764;2024-03-02T07:14:50;80.30;;;35.40;;
2173;SDS011;1093;51.424;11.764;2024-03-02T07:17:36;80.30;;;35.33;;
2173;SDS011;1093;51.424;11.764;2024-03-02T07:20:03;74.47;;;33.03;;
2173;SDS011;1093;51.424;11.764;2024-03-02T07:22:31;80.50;;;37.63;;
2173;SDS011;1093;51.424;11.764;2024-03-02T07:24:58;65.80;;;35.70;;
2173;SDS011;1093;51.424;11.764;2024-03-02T07:27:25;67.90;;;35.90;;
2173;SDS011;1093;51.424;11.764;2024-03-02T07:29:53;67.07;;;32.17;;
2173;SDS011;1093;51.424;11.764;2024-03-02T07:32:20;64.10;;;34.83;;
2173;SDS011;1093;51.424;11.764;2024-03-02T07:34:47;66.30;;;35.20;;
2173;SDS011;1093;51.424;11.764;2024-03-02T07:37:15;69.50;;;37.70;;
2173;SDS011;1093;51.424;11.764;2024-03-02T07:39:43;66.67;;;35.03;;
2173;SDS011;1093;51.424;11.764;2024-03-02T07:42:10;81.70;;;36.17;;
2173;SDS011;1093;51.424;11.764;2024-03-02T07:44:37;75.07;;;35.37;;
2173;SDS011;1093;51.424;11.764;2024-03-02T07:47:05;79.27;;;36.73;;
2173;SDS011;1093;51.424;11.764;2024-03-02T07:49:33;82.37;;;39.63;;
2173;SDS011;1093;51.424;11.764;2024-03-02T07:52:00;70.23;;;35.13;;
2173;SDS011;1093;51.424;11.764;2024-03-02T07:54:27;82.30;;;36.50;;
2173;SDS011;1093;51.424;11.764;2024-03-02T07:56:53;85.00;;;40.27;;
2173;SDS011;1093;51.424;11.764;2024-03-02T07:59:21;92.53;;;40.77;;
2173;SDS011;1093;51.424;11.764;2024-03-02T08:01:48;95.03;;;40.90;;
2173;SDS011;1093;51.424;11.764;2024-03-02T08:04:17;82.67;;;40.70;;
2173;SDS011;1093;51.424;11.764;2024-03-02T08:06:45;82.13;;;39.40;;
2173;SDS011;1093;51.424;11.764;2024-03-02T08:09:12;84.80;;;39.97;;
2173;SDS011;1093;51.424;11.764;2024-03-02T08:11:39;80.03;;;40.43;;
2173;SDS011;1093;51.424;11.764;2024-03-02T08:14:06;88.53;;;41.27;;
2173;SDS011;1093;51.424;11.764;2024-03-02T08:16:33;81.60;;;40.17;;
2173;SDS011;1093;51.424;11.764;2024-03-02T08:19:01;84.23;;;41.40;;
2173;SDS011;1093;51.424;11.764;2024-03-02T08:21:29;92.50;;;42.63;;
2173;SDS011;1093;51.424;11.764;2024-03-02T08:23:57;82.80;;;40.07;;
2173;SDS011;1093;51.424;11.764;2024-03-02T08:26:24;86.90;;;37.97;;
2173;SDS011;1093;51.424;11.764;2024-03-02T08:28:54;80.93;;;38.27;;
2173;SDS011;1093;51.424;11.764;2024-03-02T08:31:20;84.70;;;38.77;;
2173;SDS011;1093;51.424;11.764;2024-03-02T08:33:47;73.80;;;37.50;;
2173;SDS011;1093;51.424;11.764;2024-03-02T08:36:14;87.90;;;40.43;;
2173;SDS011;1093;51.424;11.764;2024-03-02T08:38:43;84.50;;;35.10;;
2173;SDS011;1093;51.424;11.764;2024-03-02T08:41:10;71.00;;;35.67;;
2173;SDS011;1093;51.424;11.764;2024-03-02T08:43:38;85.60;;;39.03;;
2173;SDS011;1093;51.424;11.764;2024-03-02T08:46:07;81.87;;;37.37;;
2173;SDS011;1093;51.424;11.764;2024-03-02T08:48:34;70.33;;;38.47;;
2173;SDS011;1093;51.424;11.764;2024-03-02T08:51:01;77.83;;;35.30;;
2173;SDS011;1093;51.424;11.764;2024-03-02T08:53:31;75.83;;;36.27;;
2173;SDS011;1093;51.424;11.764;2024-03-02T08:55:59;71.90;;;35.30;;
2173;SDS011;1093;51.424;11.764;2024-03-02T08:58:26;67.27;;;35.93;;
2173;SDS011;1093;51.424;11.764;2024-03-02T09:00:53;76.43;;;34.67;;
2173;SDS011;1093;51.424;11.764;2024-03-02T09:03:20;67.60;;;35.83;;
2173;SDS011;1093;51.424;11.764;2024-03-02T09:05:47;66.67;;;36.30;;
2173;SDS011;1093;51.424;11.764;2024-03-02T09:08:14;66.80;;;34.93;;
2173;SDS011;1093;51.424;11.764;2024-03-02T09:10:41;74.10;;;37.10;;
2173;SDS011;1093;51.424;11.764;2024-03-02T09:13:10;62.33;;;34.70;;
2173;SDS011;1093;51.424;11.764;2024-03-02T09:15:37;65.50;;;35.60;;
2173;SDS011;1093;51.424;11.764;2024-03-02T09:18:04;68.60;;;36.30;;
2173;SDS011;1093;51.424;11.764;2024-03-02T09:20:31;76.63;;;36.23;;
2173;SDS011;1093;51.424;11.764;2024-03-02T09:22:58;57.93;;;34.30;;
2173;SDS011;1093;51.424;11.764;2024-03-02T09:25:24;64.97;;;33.70;;
2173;SDS011;1093;51.424;11.764;2024-03-02T09:27:51;66.70;;;33.77;;
2173;SDS011;1093;51.424;11.764;2024-03-02T09:30:20;74.77;;;35.20;;
2173;SDS011;1093;51.424;11.764;2024-03-02T09:32:48;71.50;;;33.80;;
2173;SDS011;1093;51.424;11.764;2024-03-02T09:35:15;65.40;;;35.67;;
2173;SDS011;1093;51.424;11.764;2024-03-02T09:37:43;57.90;;;33.33;;
2173;SDS011;1093;51.424;11.764;2024-03-02T09:40:10;70.10;;;35.07;;
2173;SDS011;1093;51.424;11.764;2024-03-02T09:42:37;55.00;;;31.77;;
2173;SDS011;1093;51.424;11.764;2024-03-02T09:45:05;50.53;;;28.43;;
2173;SDS011;1093;51.424;11.764;2024-03-02T09:47:35;51.90;;;30.40;;
2173;SDS011;1093;51.424;11.764;2024-03-02T09:50:02;52.60;;;29.47;;
2173;SDS011;1093;51.424;11.764;2024-03-02T09:52:30;56.87;;;30.37;;
2173;SDS011;1093;51.424;11.764;2024-03-02T09:54:58;53.73;;;27.63;;
2173;SDS011;1093;51.424;11.764;2024-03-02T09:57:25;49.50;;;28.33;;
2173;SDS011;1093;51.424;11.764;2024-03-02T09:59:51;53.90;;;30.50;;
2173;SDS011;1093;51.424;11.764;2024-03-02T10:02:18;50.70;;;27.77;;
2173;SDS011;1093;51.424;11.764;2024-03-02T10:04:47;45.53;;;27.40;;
2173;SDS011;1093;51.424;11.764;2024-03-02T10:07:15;51.50;;;27.10;;
2173;SDS011;1093;51.424;11.764;2024-03-02T10:09:44;42.47;;;25.53;;
2173;SDS011;1093;51.424;11.764;2024-03-02T10:12:12;42.37;;;25.43;;
2173;SDS011;1093;51.424;11.764;2024-03-02T10:14:41;45.33;;;24.50;;
2173;SDS011;1093;51.424;11.764;2024-03-02T10:17:09;52.60;;;26.67;;
2173;SDS011;1093;51.424;11.764;2024-03-02T10:19:36;44.33;;;24.00;;
2173;SDS011;1093;51.424;11.764;2024-03-02T10:22:06;43.60;;;22.77;;
2173;SDS011;1093;51.424;11.764;2024-03-02T10:24:35;43.47;;;22.30;;
2173;SDS011;1093;51.424;11.764;2024-03-02T10:27:06;38.93;;;22.83;;
2173;SDS011;1093;51.424;11.764;2024-03-02T10:29:38;39.90;;;22.80;;
2173;SDS011;1093;51.424;11.764;2024-03-02T10:32:06;34.90;;;20.80;;
2173;SDS011;1093;51.424;11.764;2024-03-02T10:34:36;34.40;;;21.30;;
2173;SDS011;1093;51.424;11.764;2024-03-02T10:37:03;40.83;;;23.80;;
2173;SDS011;1093;51.424;11.764;2024-03-02T10:39:32;47.27;;;24.67;;
2173;SDS011;1093;51.424;11.764;2024-03-02T10:42:02;37.87;;;23.27;;
2173;SDS011;1093;51.424;11.764;2024-03-02T10:44:30;46.37;;;25.07;;
2173;SDS011;1093;51.424;11.764;2024-03-02T10:46:58;37.13;;;23.43;;
2173;SDS011;1093;51.424;11.764;2024-03-02T10:49:27;40.37;;;24.07;;
2173;SDS011;1093;51.424;11.764;2024-03-02T10:51:55;36.67;;;21.33;;
2173;SDS011;1093;51.424;11.764;2024-03-02T10:54:24;35.73;;;22.30;;
2173;SDS011;1093;51.424;11.764;2024-03-02T10:56:55;32.67;;;20.17;;
2173;SDS011;1093;51.424;11.764;2024-03-02T10:59:31;36.87;;;21.77;;
2173;SDS011;1093;51.424;11.764;2024-03-02T11:02:01;36.50;;;21.27;;
2173;SDS011;1093;51.424;11.764;2024-03-02T11:04:28;31.60;;;19.70;;
2173;SDS011;1093;51.424;11.764;2024-03-02T11:06:59;37.60;;;20.77;;
2173;SDS011;1093;51.424;11.764;2024-03-02T11:09:28;35.20;;;21.13;;
2173;SDS011;1093;51.424;11.764;2024-03-02T11:12:00;36.10;;;21.43;;
2173;SDS011;1093;51.424;11.764;2024-03-02T11:14:30;32.03;;;18.63;;
2173;SDS011;1093;51.424;11.764;2024-03-02T11:16:58;31.97;;;20.17;;
2173;SDS011;1093;51.424;11.764;2024-03-02T11:19:28;41.53;;;21.77;;
2173;SDS011;1093;51.424;11.764;2024-03-02T11:21:56;32.03;;;21.10;;
2173;SDS011;1093;51.424;11.764;2024-03-02T11:24:34;34.57;;;19.30;;
2173;SDS011;1093;51.424;11.764;2024-03-02T11:27:02;30.03;;;20.27;;
2173;SDS011;1093;51.424;11.764;2024-03-02T11:29:45;32.53;;;20.20;;
2173;SDS011;1093;51.424;11.764;2024-03-02T11:32:16;35.90;;;20.70;;
2173;SDS011;1093;51.424;11.764;2024-03-02T11:34:47;30.63;;;18.70;;
2173;SDS011;1093;51.424;11.764;2024-03-02T11:37:16;40.67;;;20.73;;
2173;SDS011;1093;51.424;11.764;2024-03-02T11:39:47;31.40;;;17.87;;
2173;SDS011;1093;51.424;11.764;2024-03-02T11:42:16;27.40;;;18.17;;
2173;SDS011;1093;51.424;11.764;2024-03-02T11:44:44;32.30;;;18.73;;
2173;SDS011;1093;51.424;11.764;2024-03-02T11:47:13;30.47;;;18.93;;
2173;SDS011;1093;51.424;11.764;2024-03-02T11:49:41;32.33;;;18.63;;
2173;SDS011;1093;51.424;11.764;2024-03-02T11:52:10;35.20;;;21.83;;
2173;SDS011;1093;51.424;11.764;2024-03-02T11:54:38;31.73;;;20.30;;
2173;SDS011;1093;51.424;11.764;2024-03-02T11:57:13;27.03;;;18.60;;
2173;SDS011;1093;51.424;11.764;2024-03-02T11:59:41;26.40;;;18.63;;
2173;SDS011;1093;51.424;11.764;2024-03-02T12:02:12;26.20;;;17.87;;
2173;SDS011;1093;51.424;11.764;2024-03-02T12:04:43;27.37;;;17.10;;
2173;SDS011;1093;51.424;11.764;2024-03-02T12:07:10;28.30;;;18.70;;
2173;SDS011;1093;51.424;11.764;2024-03-02T12:09:37;31.67;;;17.57;;
2173;SDS011;1093;51.424;11.764;2024-03-02T12:12:05;23.50;;;15.70;;
2173;SDS011;1093;51.424;11.764;2024-03-02T12:14:35;28.13;;;17.17;;
2173;SDS011;1093;51.424;11.764;2024-03-02T12:17:04;24.67;;;15.07;;
2173;SDS011;1093;51.424;11.764;2024-03-02T12:19:32;26.57;;;16.97;;
2173;SDS011;1093;51.424;11.764;2024-03-02T12:22:00;25.97;;;17.30;;
2173;SDS011;1093;51.424;11.764;2024-03-02T12:24:27;28.10;;;16.53;;
2173;SDS011;1093;51.424;11.764;2024-03-02T12:26:55;22.73;;;14.93;;
2173;SDS011;1093;51.424;11.764;2024-03-02T12:29:23;27.17;;;17.27;;
2173;SDS011;1093;51.424;11.764;2024-03-02T12:31:52;28.40;;;16.40;;
2173;SDS011;1093;51.424;11.764;2024-03-02T12:34:20;28.60;;;17.43;;
2173;SDS011;1093;51.424;11.764;2024-03-02T12:36:48;27.10;;;16.60;;
2173;SDS011;1093;51.424;11.764;2024-03-02T12:39:18;21.17;;;14.00;;
2173;SDS011;1093;51.424;11.764;2024-03-02T12:41:45;28.23;;;16.50;;
2173;SDS011;1093;51.424;11.764;2024-03-02T12:44:15;25.83;;;15.77;;
2173;SDS011;1093;51.424;11.764;2024-03-02T12:46:43;18.77;;;13.17;;
2173;SDS011;1093;51.424;11.764;2024-03-02T12:49:12;23.37;;;13.93;;
2173;SDS011;1093;51.424;11.764;2024-03-02T12:51:41;19.20;;;12.47;;
2173;SDS011;1093;51.424;11.764;2024-03-02T12:54:10;22.63;;;14.00;;
2173;SDS011;1093;51.424;11.764;2024-03-02T12:56:37;16.37;;;12.03;;
2173;SDS011;1093;51.424;11.764;2024-03-02T12:59:04;17.10;;;11.57;;
2173;SDS011;1093;51.424;11.764;2024-03-02T13:01:31;15.27;;;11.13;;
2173;SDS011;1093;51.424;11.764;2024-03-02T13:03:58;17.73;;;10.53;;
2173;SDS011;1093;51.424;11.764;2024-03-02T13:06:27;17.97;;;12.40;;
2173;SDS011;1093;51.424;11.764;2024-03-02T13:08:54;20.03;;;13.47;;
2173;SDS011;1093;51.424;11.764;2024-03-02T13:11:21;15.80;;;10.60;;
2173;SDS011;1093;51.424;11.764;2024-03-02T13:13:49;20.10;;;11.70;;
2173;SDS011;1093;51.424;11.764;2024-03-02T13:16:16;20.70;;;10.70;;
2173;SDS011;1093;51.424;11.764;2024-03-02T13:18:45;16.83;;;11.77;;
2173;SDS011;1093;51.424;11.764;2024-03-02T13:21:12;17.50;;;10.60;;
2173;SDS011;1093;51.424;11.764;2024-03-02T13:23:41;18.17;;;10.10;;
2173;SDS011;1093;51.424;11.764;2024-03-02T13:26:08;14.03;;;10.93;;
2173;SDS011;1093;51.424;11.764;2024-03-02T13:28:37;17.57;;;11.07;;
2173;SDS011;1093;51.424;11.764;2024-03-02T13:31:05;17.97;;;10.27;;
2173;SDS011;1093;51.424;11.764;2024-03-02T13:33:32;12.93;;;9.60;;
2173;SDS011;1093;51.424;11.764;2024-03-02T13:35:59;15.00;;;10.03;;
2173;SDS011;1093;51.424;11.764;2024-03-02T13:38:26;18.37;;;11.33;;
2173;SDS011;1093;51.424;11.764;2024-03-02T13:40:55;21.33;;;12.57;;
2173;SDS011;1093;51.424;11.764;2024-03-02T13:43:22;26.20;;;14.47;;
2173;SDS011;1093;51.424;11.764;2024-03-02T13:45:49;19.13;;;14.00;;
2173;SDS011;1093;51.424;11.764;2024-03-02T13:48:18;21.17;;;13.83;;
2173;SDS011;1093;51.424;11.764;2024-03-02T13:50:45;19.90;;;13.67;;
2173;SDS011;1093;51.424;11.764;2024-03-02T13:53:12;21.13;;;13.20;;
2173;SDS011;1093;51.424;11.764;2024-03-02T13:55:39;16.60;;;12.07;;
2173;SDS011;1093;51.424;11.764;2024-03-02T13:58:08;23.27;;;15.70;;
2173;SDS011;1093;51.424;11.764;2024-03-02T14:00:36;17.73;;;12.47;;
2173;SDS011;1093;51.424;11.764;2024-03-02T14:03:04;20.30;;;14.33;;
2173;SDS011;1093;51.424;11.764;2024-03-02T14:05:32;24.37;;;15.33;;
2173;SDS011;1093;51.424;11.764;2024-03-02T14:07:59;23.73;;;14.10;;
2173;SDS011;1093;51.424;11.764;2024-03-02T14:10:26;17.43;;;12.57;;
2173;SDS011;1093;51.424;11.764;2024-03-02T14:12:53;18.00;;;13.73;;
2173;SDS011;1093;51.424;11.764;2024-03-02T14:15:22;20.97;;;12.50;;
2173;SDS011;1093;51.424;11.764;2024-03-02T14:17:50;17.80;;;12.73;;
2173;SDS011;1093;51.424;11.764;2024-03-02T14:20:16;20.40;;;12.90;;
2173;SDS011;1093;51.424;11.764;2024-03-02T14:22:47;20.20;;;12.30;;
2173;SDS011;1093;51.424;11.764;2024-03-02T14:25:14;21.60;;;13.30;;
2173;SDS011;1093;51.424;11.764;2024-03-02T14:27:42;17.07;;;12.30;;
2173;SDS011;1093;51.424;11.764;2024-03-02T14:30:09;19.43;;;12.77;;
2173;SDS011;1093;51.424;11.764;2024-03-02T14:32:40;18.30;;;13.13;;
2173;SDS011;1093;51.424;11.764;2024-03-02T14:35:08;18.07;;;12.10;;
2173;SDS011;1093;51.424;11.764;2024-03-02T14:37:36;20.50;;;14.00;;
2173;SDS011;1093;51.424;11.764;2024-03-02T14:40:04;20.03;;;12.47;;
2173;SDS011;1093;51.424;11.764;2024-03-02T14:42:34;14.77;;;10.50;;